New Bedford Regional Airport New Bedford US
ICAO: KEWB
IATA: EWB
Category: Medium
Scheduled Services: Yes

Elevation: 80 ft
TransAlt. 18000 ft.

Airport Communications:
PROVIDENCE APP/DEP:128.7
ATIS:126.85
CTAF:118.1
GND:121.9
TWR:118.1
UNICOM:122.95

KEWB Zoom In..

Runways:

(A) RW 05 length 4997 ft width 150 ft
ILS 109.70 / hdg 54

(B) RW 14 length 5000 ft width 150 ft
---- / hdg 144

(C) RW 23 length 4997 ft width 150 ft
---- / hdg 234

(D) RW 32 length 5000 ft width 150 ft
---- / hdg 324

Location; KEWB
Day. 07 / Time. 17.53 Zulu
* Altimeter: 29.82
* Temperature: 16° c. 60.8°f.
* Wind from: 270° Speed 14 kn with Gusts up to 21 kn.
Dewpoint: -03° c.
Visibility: 10 Statute Miles.
Clouds: Clear (automated report).

KEWB 071753Z 27014G21KT 10SM CLR 16/M03 A2982 RMK AO2 SLP097 T01611033 10167 20089 56024


Wind From 270°
Speed 14 kn.

 
 
jpsmedia worldairports.se 2020   terms of use